Terminal Aerodrome Forecast
Issued by NWS St Louis, MO

Home | Current Version | Previous Version | Text Only | Print | Product List | Glossary On
Versions: 1 2 3 4 5 6 7 8 9 10 11 12 13 14 15
000
FTUS43 KLSX 141736
TAFCOU
TAF
KCOU 141736Z 1418/1518 36006KT P6SM OVC028
     FM142000 31004KT P6SM OVC040
     FM151300 26006KT P6SM OVC045=

USA.gov is the U.S. government's official web portal to all federal, state and local government web resources and services.